sensor_id;sensor_type;location;lat;lon;timestamp;P1;durP1;ratioP1;P2;durP2;ratioP2
9834;SDS011;4956;50.996;13.716;2022-09-09T00:00:30;1.85;;;0.70;;
9834;SDS011;4956;50.996;13.716;2022-09-09T00:03:54;1.23;;;0.80;;
9834;SDS011;4956;50.996;13.716;2022-09-09T00:07:29;1.67;;;0.65;;
9834;SDS011;4956;50.996;13.716;2022-09-09T00:11:25;0.80;;;0.55;;
9834;SDS011;4956;50.996;13.716;2022-09-09T00:15:33;1.10;;;0.68;;
9834;SDS011;4956;50.996;13.716;2022-09-09T00:25:29;1.55;;;0.80;;
9834;SDS011;4956;50.996;13.716;2022-09-09T00:29:14;2.33;;;0.75;;
9834;SDS011;4956;50.996;13.716;2022-09-09T00:32:39;0.63;;;0.60;;
9834;SDS011;4956;50.996;13.716;2022-09-09T00:36:00;1.60;;;0.90;;
9834;SDS011;4956;50.996;13.716;2022-09-09T00:42:52;1.33;;;0.70;;
9834;SDS011;4956;50.996;13.716;2022-09-09T00:50:13;0.75;;;0.60;;
9834;SDS011;4956;50.996;13.716;2022-09-09T00:57:26;1.95;;;0.70;;
9834;SDS011;4956;50.996;13.716;2022-09-09T01:00:53;1.10;;;0.50;;
9834;SDS011;4956;50.996;13.716;2022-09-09T01:04:19;0.98;;;0.68;;
9834;SDS011;4956;50.996;13.716;2022-09-09T01:07:44;1.23;;;0.57;;
9834;SDS011;4956;50.996;13.716;2022-09-09T01:11:52;1.27;;;0.80;;
9834;SDS011;4956;50.996;13.716;2022-09-09T01:18:43;2.28;;;0.68;;
9834;SDS011;4956;50.996;13.716;2022-09-09T01:25:56;2.65;;;0.77;;
9834;SDS011;4956;50.996;13.716;2022-09-09T01:29:23;1.33;;;0.82;;
9834;SDS011;4956;50.996;13.716;2022-09-09T01:32:46;1.08;;;0.77;;
9834;SDS011;4956;50.996;13.716;2022-09-09T01:36:11;2.08;;;0.70;;
9834;SDS011;4956;50.996;13.716;2022-09-09T01:39:42;1.40;;;0.85;;
9834;SDS011;4956;50.996;13.716;2022-09-09T01:43:05;2.45;;;0.75;;
9834;SDS011;4956;50.996;13.716;2022-09-09T01:46:28;1.15;;;0.70;;
9834;SDS011;4956;50.996;13.716;2022-09-09T01:49:49;0.98;;;0.68;;
9834;SDS011;4956;50.996;13.716;2022-09-09T01:53:17;1.80;;;0.68;;
9834;SDS011;4956;50.996;13.716;2022-09-09T02:00:18;1.20;;;0.73;;
9834;SDS011;4956;50.996;13.716;2022-09-09T02:03:47;1.27;;;0.30;;
9834;SDS011;4956;50.996;13.716;2022-09-09T02:07:16;0.93;;;0.60;;
9834;SDS011;4956;50.996;13.716;2022-09-09T02:10:56;1.40;;;0.60;;
9834;SDS011;4956;50.996;13.716;2022-09-09T02:14:36;1.98;;;0.60;;
9834;SDS011;4956;50.996;13.716;2022-09-09T02:18:00;2.63;;;0.82;;
9834;SDS011;4956;50.996;13.716;2022-09-09T02:21:28;2.15;;;0.70;;
9834;SDS011;4956;50.996;13.716;2022-09-09T02:24:49;1.05;;;0.57;;
9834;SDS011;4956;50.996;13.716;2022-09-09T02:28:17;3.17;;;0.70;;
9834;SDS011;4956;50.996;13.716;2022-09-09T02:31:38;0.77;;;0.50;;
9834;SDS011;4956;50.996;13.716;2022-09-09T02:35:10;1.98;;;0.75;;
9834;SDS011;4956;50.996;13.716;2022-09-09T02:38:37;1.25;;;0.75;;
9834;SDS011;4956;50.996;13.716;2022-09-09T02:42:03;1.15;;;0.60;;
9834;SDS011;4956;50.996;13.716;2022-09-09T02:45:28;2.47;;;0.65;;
9834;SDS011;4956;50.996;13.716;2022-09-09T02:49:11;0.93;;;0.50;;
9834;SDS011;4956;50.996;13.716;2022-09-09T02:52:50;1.48;;;0.77;;
9834;SDS011;4956;50.996;13.716;2022-09-09T02:56:20;3.53;;;0.70;;
9834;SDS011;4956;50.996;13.716;2022-09-09T02:59:43;1.88;;;0.57;;
9834;SDS011;4956;50.996;13.716;2022-09-09T03:03:04;1.15;;;0.50;;
9834;SDS011;4956;50.996;13.716;2022-09-09T03:06:27;2.65;;;0.70;;
9834;SDS011;4956;50.996;13.716;2022-09-09T03:09:56;1.80;;;0.70;;
9834;SDS011;4956;50.996;13.716;2022-09-09T03:13:20;1.73;;;0.70;;
9834;SDS011;4956;50.996;13.716;2022-09-09T03:16:41;2.38;;;0.50;;
9834;SDS011;4956;50.996;13.716;2022-09-09T03:20:03;1.45;;;0.70;;
9834;SDS011;4956;50.996;13.716;2022-09-09T03:23:25;1.50;;;0.50;;
9834;SDS011;4956;50.996;13.716;2022-09-09T03:26:45;1.50;;;0.60;;
9834;SDS011;4956;50.996;13.716;2022-09-09T03:30:09;1.90;;;0.70;;
9834;SDS011;4956;50.996;13.716;2022-09-09T03:33:31;2.05;;;0.73;;
9834;SDS011;4956;50.996;13.716;2022-09-09T03:36:52;2.95;;;0.60;;
9834;SDS011;4956;50.996;13.716;2022-09-09T03:40:13;2.50;;;0.60;;
9834;SDS011;4956;50.996;13.716;2022-09-09T03:43:36;1.70;;;0.60;;
9834;SDS011;4956;50.996;13.716;2022-09-09T03:46:58;1.13;;;0.70;;
9834;SDS011;4956;50.996;13.716;2022-09-09T03:50:20;1.10;;;0.70;;
9834;SDS011;4956;50.996;13.716;2022-09-09T03:53:42;3.45;;;0.60;;
9834;SDS011;4956;50.996;13.716;2022-09-09T03:57:03;1.70;;;0.77;;
9834;SDS011;4956;50.996;13.716;2022-09-09T04:00:24;2.05;;;0.60;;
9834;SDS011;4956;50.996;13.716;2022-09-09T04:03:46;2.85;;;0.65;;
9834;SDS011;4956;50.996;13.716;2022-09-09T04:07:07;1.35;;;0.50;;
9834;SDS011;4956;50.996;13.716;2022-09-09T04:10:27;3.20;;;0.60;;
9834;SDS011;4956;50.996;13.716;2022-09-09T04:13:49;1.20;;;0.60;;
9834;SDS011;4956;50.996;13.716;2022-09-09T04:17:11;2.70;;;0.50;;
9834;SDS011;4956;50.996;13.716;2022-09-09T04:20:32;1.60;;;0.60;;
9834;SDS011;4956;50.996;13.716;2022-09-09T04:23:53;1.92;;;0.80;;
9834;SDS011;4956;50.996;13.716;2022-09-09T04:27:13;3.22;;;0.70;;
9834;SDS011;4956;50.996;13.716;2022-09-09T04:30:34;2.00;;;0.50;;
9834;SDS011;4956;50.996;13.716;2022-09-09T04:33:55;2.47;;;0.50;;
9834;SDS011;4956;50.996;13.716;2022-09-09T04:37:16;1.83;;;0.80;;
9834;SDS011;4956;50.996;13.716;2022-09-09T04:40:37;2.35;;;0.57;;
9834;SDS011;4956;50.996;13.716;2022-09-09T04:44:03;2.08;;;0.63;;
9834;SDS011;4956;50.996;13.716;2022-09-09T04:47:23;1.02;;;0.40;;
9834;SDS011;4956;50.996;13.716;2022-09-09T04:50:44;2.20;;;0.65;;
9834;SDS011;4956;50.996;13.716;2022-09-09T04:54:06;1.65;;;0.60;;
9834;SDS011;4956;50.996;13.716;2022-09-09T04:57:27;2.30;;;0.77;;
9834;SDS011;4956;50.996;13.716;2022-09-09T05:00:48;1.13;;;0.43;;
9834;SDS011;4956;50.996;13.716;2022-09-09T05:04:10;1.27;;;0.52;;
9834;SDS011;4956;50.996;13.716;2022-09-09T05:07:30;1.90;;;0.70;;
9834;SDS011;4956;50.996;13.716;2022-09-09T05:10:51;2.53;;;0.60;;
9834;SDS011;4956;50.996;13.716;2022-09-09T05:14:12;1.10;;;0.50;;
9834;SDS011;4956;50.996;13.716;2022-09-09T05:17:32;1.45;;;0.52;;
9834;SDS011;4956;50.996;13.716;2022-09-09T05:20:58;0.82;;;0.40;;
9834;SDS011;4956;50.996;13.716;2022-09-09T05:24:25;1.20;;;0.50;;
9834;SDS011;4956;50.996;13.716;2022-09-09T05:27:48;2.28;;;0.50;;
9834;SDS011;4956;50.996;13.716;2022-09-09T05:31:10;1.00;;;0.38;;
9834;SDS011;4956;50.996;13.716;2022-09-09T05:34:34;2.03;;;0.50;;
9834;SDS011;4956;50.996;13.716;2022-09-09T05:37:58;1.67;;;0.60;;
9834;SDS011;4956;50.996;13.716;2022-09-09T05:41:19;2.58;;;0.60;;
9834;SDS011;4956;50.996;13.716;2022-09-09T05:44:40;2.13;;;0.63;;
9834;SDS011;4956;50.996;13.716;2022-09-09T05:48:02;1.58;;;0.52;;
9834;SDS011;4956;50.996;13.716;2022-09-09T05:51:24;1.70;;;0.40;;
9834;SDS011;4956;50.996;13.716;2022-09-09T05:54:48;1.10;;;0.47;;
9834;SDS011;4956;50.996;13.716;2022-09-09T05:58:08;1.42;;;0.60;;
9834;SDS011;4956;50.996;13.716;2022-09-09T06:01:31;1.95;;;0.52;;
9834;SDS011;4956;50.996;13.716;2022-09-09T06:04:52;2.05;;;0.50;;
9834;SDS011;4956;50.996;13.716;2022-09-09T06:08:13;2.25;;;0.50;;
9834;SDS011;4956;50.996;13.716;2022-09-09T06:11:34;1.92;;;0.50;;
9834;SDS011;4956;50.996;13.716;2022-09-09T06:14:56;2.65;;;0.70;;
9834;SDS011;4956;50.996;13.716;2022-09-09T06:18:17;1.75;;;0.52;;
9834;SDS011;4956;50.996;13.716;2022-09-09T06:21:38;2.53;;;0.57;;
9834;SDS011;4956;50.996;13.716;2022-09-09T06:25:02;1.30;;;0.50;;
9834;SDS011;4956;50.996;13.716;2022-09-09T06:28:22;2.13;;;0.60;;
9834;SDS011;4956;50.996;13.716;2022-09-09T06:31:42;1.65;;;0.50;;
9834;SDS011;4956;50.996;13.716;2022-09-09T06:35:08;1.40;;;0.60;;
9834;SDS011;4956;50.996;13.716;2022-09-09T06:38:29;1.67;;;0.60;;
9834;SDS011;4956;50.996;13.716;2022-09-09T06:41:51;1.08;;;0.60;;
9834;SDS011;4956;50.996;13.716;2022-09-09T06:45:39;1.52;;;0.70;;
9834;SDS011;4956;50.996;13.716;2022-09-09T06:48:59;2.13;;;0.50;;
9834;SDS011;4956;50.996;13.716;2022-09-09T06:52:20;2.17;;;0.60;;
9834;SDS011;4956;50.996;13.716;2022-09-09T06:55:41;1.25;;;0.60;;
9834;SDS011;4956;50.996;13.716;2022-09-09T06:59:06;1.52;;;0.50;;
9834;SDS011;4956;50.996;13.716;2022-09-09T07:02:29;1.65;;;0.60;;
9834;SDS011;4956;50.996;13.716;2022-09-09T07:05:55;1.27;;;0.50;;
9834;SDS011;4956;50.996;13.716;2022-09-09T07:09:17;1.85;;;0.60;;
9834;SDS011;4956;50.996;13.716;2022-09-09T07:12:40;1.23;;;0.50;;
9834;SDS011;4956;50.996;13.716;2022-09-09T07:16:04;3.30;;;0.73;;
9834;SDS011;4956;50.996;13.716;2022-09-09T07:19:26;2.90;;;0.70;;
9834;SDS011;4956;50.996;13.716;2022-09-09T07:22:47;4.40;;;0.57;;
9834;SDS011;4956;50.996;13.716;2022-09-09T07:26:11;3.65;;;0.80;;
9834;SDS011;4956;50.996;13.716;2022-09-09T07:29:33;1.15;;;0.50;;
9834;SDS011;4956;50.996;13.716;2022-09-09T07:32:54;2.63;;;0.70;;
9834;SDS011;4956;50.996;13.716;2022-09-09T07:36:23;3.33;;;0.60;;
9834;SDS011;4956;50.996;13.716;2022-09-09T07:39:46;1.33;;;0.45;;
9834;SDS011;4956;50.996;13.716;2022-09-09T07:43:07;1.58;;;0.55;;
9834;SDS011;4956;50.996;13.716;2022-09-09T07:46:27;3.20;;;0.70;;
9834;SDS011;4956;50.996;13.716;2022-09-09T07:49:48;1.67;;;0.60;;
9834;SDS011;4956;50.996;13.716;2022-09-09T07:53:13;3.17;;;0.85;;
9834;SDS011;4956;50.996;13.716;2022-09-09T07:56:34;4.15;;;0.70;;
9834;SDS011;4956;50.996;13.716;2022-09-09T07:59:55;2.80;;;0.75;;
9834;SDS011;4956;50.996;13.716;2022-09-09T08:03:16;1.98;;;0.65;;
9834;SDS011;4956;50.996;13.716;2022-09-09T08:06:38;3.30;;;0.60;;
9834;SDS011;4956;50.996;13.716;2022-09-09T08:10:00;2.72;;;0.80;;
9834;SDS011;4956;50.996;13.716;2022-09-09T08:13:24;2.63;;;0.90;;
9834;SDS011;4956;50.996;13.716;2022-09-09T08:16:47;2.10;;;0.75;;
9834;SDS011;4956;50.996;13.716;2022-09-09T08:20:11;3.70;;;1.00;;
9834;SDS011;4956;50.996;13.716;2022-09-09T08:23:32;1.25;;;0.70;;
9834;SDS011;4956;50.996;13.716;2022-09-09T08:26:52;4.03;;;0.70;;
9834;SDS011;4956;50.996;13.716;2022-09-09T08:30:16;2.47;;;0.80;;
9834;SDS011;4956;50.996;13.716;2022-09-09T08:33:37;1.92;;;0.70;;
9834;SDS011;4956;50.996;13.716;2022-09-09T08:37:00;1.75;;;0.82;;
9834;SDS011;4956;50.996;13.716;2022-09-09T08:40:30;1.50;;;0.65;;
9834;SDS011;4956;50.996;13.716;2022-09-09T08:43:59;1.60;;;0.85;;
9834;SDS011;4956;50.996;13.716;2022-09-09T08:47:31;1.83;;;0.70;;
9834;SDS011;4956;50.996;13.716;2022-09-09T08:51:09;3.05;;;0.60;;
9834;SDS011;4956;50.996;13.716;2022-09-09T08:54:33;2.88;;;0.90;;
9834;SDS011;4956;50.996;13.716;2022-09-09T08:57:57;3.58;;;0.80;;
9834;SDS011;4956;50.996;13.716;2022-09-09T09:05:23;3.28;;;0.77;;
9834;SDS011;4956;50.996;13.716;2022-09-09T09:08:52;4.57;;;0.90;;
9834;SDS011;4956;50.996;13.716;2022-09-09T09:12:21;3.53;;;1.10;;
9834;SDS011;4956;50.996;13.716;2022-09-09T09:15:44;4.10;;;1.17;;
9834;SDS011;4956;50.996;13.716;2022-09-09T09:19:12;3.70;;;0.82;;
9834;SDS011;4956;50.996;13.716;2022-09-09T09:22:44;5.32;;;1.38;;
9834;SDS011;4956;50.996;13.716;2022-09-09T09:26:09;3.33;;;0.82;;
9834;SDS011;4956;50.996;13.716;2022-09-09T09:29:34;3.08;;;1.00;;
9834;SDS011;4956;50.996;13.716;2022-09-09T09:32:59;1.67;;;0.77;;
9834;SDS011;4956;50.996;13.716;2022-09-09T09:36:25;3.05;;;1.25;;
9834;SDS011;4956;50.996;13.716;2022-09-09T09:40:07;2.92;;;0.85;;
9834;SDS011;4956;50.996;13.716;2022-09-09T09:46:52;2.25;;;0.90;;
9834;SDS011;4956;50.996;13.716;2022-09-09T09:50:18;4.15;;;1.05;;
9834;SDS011;4956;50.996;13.716;2022-09-09T09:53:40;5.05;;;0.90;;
9834;SDS011;4956;50.996;13.716;2022-09-09T09:57:16;3.75;;;1.25;;
9834;SDS011;4956;50.996;13.716;2022-09-09T10:00:46;4.72;;;1.13;;
9834;SDS011;4956;50.996;13.716;2022-09-09T10:04:16;4.20;;;0.93;;
9834;SDS011;4956;50.996;13.716;2022-09-09T10:07:41;3.80;;;0.90;;
9834;SDS011;4956;50.996;13.716;2022-09-09T10:11:25;2.38;;;0.80;;
9834;SDS011;4956;50.996;13.716;2022-09-09T10:14:54;4.38;;;0.80;;
9834;SDS011;4956;50.996;13.716;2022-09-09T10:18:36;6.95;;;1.23;;
9834;SDS011;4956;50.996;13.716;2022-09-09T10:33:10;1.38;;;0.70;;
9834;SDS011;4956;50.996;13.716;2022-09-09T10:36:35;2.35;;;0.75;;
9834;SDS011;4956;50.996;13.716;2022-09-09T10:43:50;2.78;;;0.73;;
9834;SDS011;4956;50.996;13.716;2022-09-09T10:50:54;2.63;;;1.00;;
9834;SDS011;4956;50.996;13.716;2022-09-09T10:58:03;4.03;;;1.40;;
9834;SDS011;4956;50.996;13.716;2022-09-09T11:01:25;2.25;;;0.80;;
9834;SDS011;4956;50.996;13.716;2022-09-09T11:04:53;3.13;;;0.90;;
9834;SDS011;4956;50.996;13.716;2022-09-09T11:08:18;3.47;;;1.05;;
9834;SDS011;4956;50.996;13.716;2022-09-09T11:12:00;1.85;;;1.00;;
9834;SDS011;4956;50.996;13.716;2022-09-09T11:15:25;4.63;;;1.40;;
9834;SDS011;4956;50.996;13.716;2022-09-09T11:18:52;3.40;;;1.60;;
9834;SDS011;4956;50.996;13.716;2022-09-09T11:22:31;3.65;;;1.55;;
9834;SDS011;4956;50.996;13.716;2022-09-09T11:26:13;5.95;;;1.80;;
9834;SDS011;4956;50.996;13.716;2022-09-09T11:29:43;4.40;;;1.40;;
9834;SDS011;4956;50.996;13.716;2022-09-09T11:33:23;2.83;;;1.58;;
9834;SDS011;4956;50.996;13.716;2022-09-09T11:41:03;3.40;;;1.30;;
9834;SDS011;4956;50.996;13.716;2022-09-09T11:44:28;5.10;;;1.90;;
9834;SDS011;4956;50.996;13.716;2022-09-09T11:47:53;4.18;;;1.67;;
9834;SDS011;4956;50.996;13.716;2022-09-09T11:54:47;3.10;;;1.60;;
9834;SDS011;4956;50.996;13.716;2022-09-09T12:05:11;2.88;;;1.65;;
9834;SDS011;4956;50.996;13.716;2022-09-09T12:08:32;4.00;;;2.20;;
9834;SDS011;4956;50.996;13.716;2022-09-09T12:15:28;3.30;;;1.40;;
9834;SDS011;4956;50.996;13.716;2022-09-09T12:18:49;4.72;;;1.65;;
9834;SDS011;4956;50.996;13.716;2022-09-09T12:22:27;3.13;;;1.40;;
9834;SDS011;4956;50.996;13.716;2022-09-09T12:26:04;2.03;;;1.40;;
9834;SDS011;4956;50.996;13.716;2022-09-09T12:29:37;4.15;;;1.50;;
9834;SDS011;4956;50.996;13.716;2022-09-09T12:33:01;3.05;;;1.30;;
9834;SDS011;4956;50.996;13.716;2022-09-09T12:36:25;3.72;;;1.67;;
9834;SDS011;4956;50.996;13.716;2022-09-09T12:40:03;3.53;;;1.30;;
9834;SDS011;4956;50.996;13.716;2022-09-09T12:43:26;1.98;;;1.10;;
9834;SDS011;4956;50.996;13.716;2022-09-09T12:46:46;2.25;;;1.13;;
9834;SDS011;4956;50.996;13.716;2022-09-09T12:50:14;3.25;;;1.23;;
9834;SDS011;4956;50.996;13.716;2022-09-09T12:53:42;3.00;;;1.27;;
9834;SDS011;4956;50.996;13.716;2022-09-09T12:57:03;3.83;;;1.20;;
9834;SDS011;4956;50.996;13.716;2022-09-09T13:00:24;2.42;;;1.20;;
9834;SDS011;4956;50.996;13.716;2022-09-09T13:03:45;2.72;;;1.25;;
9834;SDS011;4956;50.996;13.716;2022-09-09T13:07:06;4.95;;;1.38;;
9834;SDS011;4956;50.996;13.716;2022-09-09T13:10:31;4.78;;;1.40;;
9834;SDS011;4956;50.996;13.716;2022-09-09T13:13:55;2.83;;;1.05;;
9834;SDS011;4956;50.996;13.716;2022-09-09T13:17:23;2.47;;;1.23;;
9834;SDS011;4956;50.996;13.716;2022-09-09T13:20:46;4.70;;;1.17;;
9834;SDS011;4956;50.996;13.716;2022-09-09T13:24:22;3.42;;;1.15;;
9834;SDS011;4956;50.996;13.716;2022-09-09T13:27:58;1.95;;;1.10;;
9834;SDS011;4956;50.996;13.716;2022-09-09T13:31:32;3.28;;;1.02;;
9834;SDS011;4956;50.996;13.716;2022-09-09T13:34:55;2.85;;;1.10;;
9834;SDS011;4956;50.996;13.716;2022-09-09T13:38:17;2.33;;;1.02;;
9834;SDS011;4956;50.996;13.716;2022-09-09T13:41:43;1.90;;;1.00;;
9834;SDS011;4956;50.996;13.716;2022-09-09T13:45:05;2.65;;;0.90;;
9834;SDS011;4956;50.996;13.716;2022-09-09T13:48:26;2.08;;;1.00;;
9834;SDS011;4956;50.996;13.716;2022-09-09T13:51:48;2.03;;;0.70;;
9834;SDS011;4956;50.996;13.716;2022-09-09T13:55:10;1.88;;;0.60;;
9834;SDS011;4956;50.996;13.716;2022-09-09T13:58:31;1.35;;;0.70;;
9834;SDS011;4956;50.996;13.716;2022-09-09T14:01:51;2.65;;;0.90;;
9834;SDS011;4956;50.996;13.716;2022-09-09T14:05:12;3.75;;;0.73;;
9834;SDS011;4956;50.996;13.716;2022-09-09T14:08:32;3.80;;;1.08;;
9834;SDS011;4956;50.996;13.716;2022-09-09T14:11:56;1.80;;;0.73;;
9834;SDS011;4956;50.996;13.716;2022-09-09T14:15:17;1.50;;;0.75;;
9834;SDS011;4956;50.996;13.716;2022-09-09T14:18:37;2.07;;;0.83;;
9834;SDS011;4956;50.996;13.716;2022-09-09T14:21:59;1.05;;;0.80;;
9834;SDS011;4956;50.996;13.716;2022-09-09T14:25:19;1.20;;;0.70;;
9834;SDS011;4956;50.996;13.716;2022-09-09T14:28:39;2.13;;;0.97;;
9834;SDS011;4956;50.996;13.716;2022-09-09T14:32:00;2.25;;;1.08;;
9834;SDS011;4956;50.996;13.716;2022-09-09T14:35:20;1.52;;;0.80;;
9834;SDS011;4956;50.996;13.716;2022-09-09T14:38:42;3.55;;;1.00;;
9834;SDS011;4956;50.996;13.716;2022-09-09T14:42:02;3.88;;;1.10;;
9834;SDS011;4956;50.996;13.716;2022-09-09T14:45:23;4.55;;;1.10;;
9834;SDS011;4956;50.996;13.716;2022-09-09T14:48:44;2.10;;;0.77;;
9834;SDS011;4956;50.996;13.716;2022-09-09T14:52:06;3.53;;;1.10;;
9834;SDS011;4956;50.996;13.716;2022-09-09T14:55:29;2.42;;;1.38;;
9834;SDS011;4956;50.996;13.716;2022-09-09T14:58:49;3.22;;;1.42;;
9834;SDS011;4956;50.996;13.716;2022-09-09T15:02:11;2.45;;;1.13;;
9834;SDS011;4956;50.996;13.716;2022-09-09T15:05:33;3.05;;;1.23;;
9834;SDS011;4956;50.996;13.716;2022-09-09T15:08:56;1.88;;;1.10;;
9834;SDS011;4956;50.996;13.716;2022-09-09T15:12:17;2.67;;;1.25;;
9834;SDS011;4956;50.996;13.716;2022-09-09T15:15:39;3.03;;;1.30;;
9834;SDS011;4956;50.996;13.716;2022-09-09T15:19:00;2.67;;;1.30;;
9834;SDS011;4956;50.996;13.716;2022-09-09T15:22:21;3.30;;;1.60;;
9834;SDS011;4956;50.996;13.716;2022-09-09T15:25:54;2.72;;;1.15;;
9834;SDS011;4956;50.996;13.716;2022-09-09T15:29:15;2.15;;;1.40;;
9834;SDS011;4956;50.996;13.716;2022-09-09T15:32:36;3.53;;;1.47;;
9834;SDS011;4956;50.996;13.716;2022-09-09T15:35:56;2.73;;;1.20;;
9834;SDS011;4956;50.996;13.716;2022-09-09T15:39:17;2.97;;;1.00;;
9834;SDS011;4956;50.996;13.716;2022-09-09T15:42:37;2.55;;;0.90;;
9834;SDS011;4956;50.996;13.716;2022-09-09T15:45:59;1.77;;;1.00;;
9834;SDS011;4956;50.996;13.716;2022-09-09T15:49:25;3.70;;;1.13;;
9834;SDS011;4956;50.996;13.716;2022-09-09T15:52:46;2.25;;;0.98;;
9834;SDS011;4956;50.996;13.716;2022-09-09T15:56:07;2.42;;;1.02;;
9834;SDS011;4956;50.996;13.716;2022-09-09T15:59:28;3.03;;;1.23;;
9834;SDS011;4956;50.996;13.716;2022-09-09T16:02:50;2.22;;;1.42;;
9834;SDS011;4956;50.996;13.716;2022-09-09T16:06:10;2.60;;;1.27;;
9834;SDS011;4956;50.996;13.716;2022-09-09T16:09:31;2.95;;;1.30;;
9834;SDS011;4956;50.996;13.716;2022-09-09T16:12:51;1.77;;;1.15;;
9834;SDS011;4956;50.996;13.716;2022-09-09T16:16:13;2.95;;;1.23;;
9834;SDS011;4956;50.996;13.716;2022-09-09T16:19:35;3.65;;;1.70;;
9834;SDS011;4956;50.996;13.716;2022-09-09T16:22:55;3.43;;;1.90;;
9834;SDS011;4956;50.996;13.716;2022-09-09T16:26:17;2.80;;;1.63;;
9834;SDS011;4956;50.996;13.716;2022-09-09T16:29:38;2.28;;;1.45;;
9834;SDS011;4956;50.996;13.716;2022-09-09T16:32:58;1.83;;;1.20;;
9834;SDS011;4956;50.996;13.716;2022-09-09T16:36:22;1.87;;;1.17;;
9834;SDS011;4956;50.996;13.716;2022-09-09T16:39:43;4.00;;;1.50;;
9834;SDS011;4956;50.996;13.716;2022-09-09T16:43:04;2.27;;;1.50;;
9834;SDS011;4956;50.996;13.716;2022-09-09T16:46:26;3.20;;;1.70;;
9834;SDS011;4956;50.996;13.716;2022-09-09T16:49:47;3.20;;;1.50;;
9834;SDS011;4956;50.996;13.716;2022-09-09T16:53:08;2.53;;;1.40;;
9834;SDS011;4956;50.996;13.716;2022-09-09T16:56:30;1.73;;;1.50;;
9834;SDS011;4956;50.996;13.716;2022-09-09T16:59:56;1.92;;;1.27;;
9834;SDS011;4956;50.996;13.716;2022-09-09T17:03:19;2.28;;;1.70;;
9834;SDS011;4956;50.996;13.716;2022-09-09T17:06:40;4.28;;;2.28;;
9834;SDS011;4956;50.996;13.716;2022-09-09T17:10:01;5.97;;;3.20;;
9834;SDS011;4956;50.996;13.716;2022-09-09T17:13:21;5.50;;;2.90;;
9834;SDS011;4956;50.996;13.716;2022-09-09T17:16:42;5.10;;;2.70;;
9834;SDS011;4956;50.996;13.716;2022-09-09T17:20:03;4.13;;;2.00;;
9834;SDS011;4956;50.996;13.716;2022-09-09T17:23:26;2.67;;;1.98;;
9834;SDS011;4956;50.996;13.716;2022-09-09T17:26:47;3.15;;;2.00;;
9834;SDS011;4956;50.996;13.716;2022-09-09T17:30:07;3.30;;;1.80;;
9834;SDS011;4956;50.996;13.716;2022-09-09T17:33:29;2.10;;;1.60;;
9834;SDS011;4956;50.996;13.716;2022-09-09T17:36:53;2.30;;;1.55;;
9834;SDS011;4956;50.996;13.716;2022-09-09T17:40:13;3.65;;;1.60;;
9834;SDS011;4956;50.996;13.716;2022-09-09T17:43:34;3.03;;;1.88;;
9834;SDS011;4956;50.996;13.716;2022-09-09T17:46:55;4.03;;;2.55;;
9834;SDS011;4956;50.996;13.716;2022-09-09T17:50:16;3.80;;;2.03;;
9834;SDS011;4956;50.996;13.716;2022-09-09T17:53:40;2.40;;;1.90;;
9834;SDS011;4956;50.996;13.716;2022-09-09T17:57:04;2.53;;;1.90;;
9834;SDS011;4956;50.996;13.716;2022-09-09T18:00:25;4.28;;;1.60;;
9834;SDS011;4956;50.996;13.716;2022-09-09T18:03:46;4.07;;;1.40;;
9834;SDS011;4956;50.996;13.716;2022-09-09T18:07:08;2.13;;;1.17;;
9834;SDS011;4956;50.996;13.716;2022-09-09T18:10:28;2.75;;;1.13;;
9834;SDS011;4956;50.996;13.716;2022-09-09T18:13:49;1.10;;;1.00;;
9834;SDS011;4956;50.996;13.716;2022-09-09T18:17:10;2.08;;;1.20;;
9834;SDS011;4956;50.996;13.716;2022-09-09T18:20:31;2.03;;;1.23;;
9834;SDS011;4956;50.996;13.716;2022-09-09T18:23:52;1.27;;;1.05;;
9834;SDS011;4956;50.996;13.716;2022-09-09T18:27:13;1.50;;;1.10;;
9834;SDS011;4956;50.996;13.716;2022-09-09T18:30:37;1.52;;;0.90;;
9834;SDS011;4956;50.996;13.716;2022-09-09T18:33:59;1.52;;;0.90;;
9834;SDS011;4956;50.996;13.716;2022-09-09T18:37:21;1.95;;;1.10;;
9834;SDS011;4956;50.996;13.716;2022-09-09T18:40:42;1.50;;;0.90;;
9834;SDS011;4956;50.996;13.716;2022-09-09T18:44:04;1.73;;;1.15;;
9834;SDS011;4956;50.996;13.716;2022-09-09T18:47:28;2.03;;;1.20;;
9834;SDS011;4956;50.996;13.716;2022-09-09T18:50:48;1.07;;;0.97;;
9834;SDS011;4956;50.996;13.716;2022-09-09T18:54:12;2.77;;;1.20;;
9834;SDS011;4956;50.996;13.716;2022-09-09T18:57:38;2.25;;;1.30;;
9834;SDS011;4956;50.996;13.716;2022-09-09T19:00:59;1.85;;;1.10;;
9834;SDS011;4956;50.996;13.716;2022-09-09T19:04:20;2.15;;;1.02;;
9834;SDS011;4956;50.996;13.716;2022-09-09T19:07:41;2.35;;;1.33;;
9834;SDS011;4956;50.996;13.716;2022-09-09T19:11:03;4.95;;;1.02;;
9834;SDS011;4956;50.996;13.716;2022-09-09T19:14:24;1.33;;;1.10;;
9834;SDS011;4956;50.996;13.716;2022-09-09T19:17:44;1.45;;;1.10;;
9834;SDS011;4956;50.996;13.716;2022-09-09T19:21:11;2.50;;;1.80;;
9834;SDS011;4956;50.996;13.716;2022-09-09T19:24:33;2.47;;;1.80;;
9834;SDS011;4956;50.996;13.716;2022-09-09T19:27:53;2.22;;;1.77;;
9834;SDS011;4956;50.996;13.716;2022-09-09T19:31:14;3.30;;;2.00;;
9834;SDS011;4956;50.996;13.716;2022-09-09T19:34:36;4.00;;;2.22;;
9834;SDS011;4956;50.996;13.716;2022-09-09T19:37:59;3.40;;;2.30;;
9834;SDS011;4956;50.996;13.716;2022-09-09T19:41:21;2.90;;;2.10;;
9834;SDS011;4956;50.996;13.716;2022-09-09T19:44:43;2.55;;;1.80;;
9834;SDS011;4956;50.996;13.716;2022-09-09T19:48:04;2.10;;;1.63;;
9834;SDS011;4956;50.996;13.716;2022-09-09T19:51:26;3.22;;;1.50;;
9834;SDS011;4956;50.996;13.716;2022-09-09T19:54:48;2.90;;;1.77;;
9834;SDS011;4956;50.996;13.716;2022-09-09T19:58:08;2.85;;;2.22;;
9834;SDS011;4956;50.996;13.716;2022-09-09T20:01:29;3.07;;;1.80;;
9834;SDS011;4956;50.996;13.716;2022-09-09T20:04:51;2.47;;;1.40;;
9834;SDS011;4956;50.996;13.716;2022-09-09T20:08:11;4.00;;;1.40;;
9834;SDS011;4956;50.996;13.716;2022-09-09T20:11:32;4.00;;;1.65;;
9834;SDS011;4956;50.996;13.716;2022-09-09T20:14:52;2.80;;;1.50;;
9834;SDS011;4956;50.996;13.716;2022-09-09T20:18:13;1.90;;;1.50;;
9834;SDS011;4956;50.996;13.716;2022-09-09T20:21:38;2.20;;;1.80;;
9834;SDS011;4956;50.996;13.716;2022-09-09T20:25:07;1.98;;;1.77;;
9834;SDS011;4956;50.996;13.716;2022-09-09T20:28:27;2.33;;;1.48;;
9834;SDS011;4956;50.996;13.716;2022-09-09T20:31:48;1.38;;;1.20;;
9834;SDS011;4956;50.996;13.716;2022-09-09T20:35:09;2.13;;;1.20;;
9834;SDS011;4956;50.996;13.716;2022-09-09T20:38:30;1.92;;;1.40;;
9834;SDS011;4956;50.996;13.716;2022-09-09T20:41:52;1.90;;;1.20;;
9834;SDS011;4956;50.996;13.716;2022-09-09T20:45:13;1.83;;;1.30;;
9834;SDS011;4956;50.996;13.716;2022-09-09T20:48:35;2.42;;;1.40;;
9834;SDS011;4956;50.996;13.716;2022-09-09T20:51:55;1.50;;;1.40;;
9834;SDS011;4956;50.996;13.716;2022-09-09T20:55:15;1.90;;;1.30;;
9834;SDS011;4956;50.996;13.716;2022-09-09T20:58:36;1.88;;;1.35;;
9834;SDS011;4956;50.996;13.716;2022-09-09T21:01:57;3.53;;;1.20;;
9834;SDS011;4956;50.996;13.716;2022-09-09T21:05:17;1.57;;;1.10;;
9834;SDS011;4956;50.996;13.716;2022-09-09T21:08:38;1.67;;;1.50;;
9834;SDS011;4956;50.996;13.716;2022-09-09T21:12:00;1.50;;;1.33;;
9834;SDS011;4956;50.996;13.716;2022-09-09T21:15:20;3.63;;;1.48;;
9834;SDS011;4956;50.996;13.716;2022-09-09T21:18:40;2.13;;;1.30;;
9834;SDS011;4956;50.996;13.716;2022-09-09T21:22:03;1.67;;;1.50;;
9834;SDS011;4956;50.996;13.716;2022-09-09T21:25:23;2.03;;;1.33;;
9834;SDS011;4956;50.996;13.716;2022-09-09T21:28:44;1.35;;;1.25;;
9834;SDS011;4956;50.996;13.716;2022-09-09T21:32:04;2.15;;;1.40;;
9834;SDS011;4956;50.996;13.716;2022-09-09T21:35:24;1.40;;;1.00;;
9834;SDS011;4956;50.996;13.716;2022-09-09T21:38:44;1.40;;;1.07;;
9834;SDS011;4956;50.996;13.716;2022-09-09T21:42:05;3.00;;;1.30;;
9834;SDS011;4956;50.996;13.716;2022-09-09T21:45:25;1.42;;;1.00;;
9834;SDS011;4956;50.996;13.716;2022-09-09T21:48:47;3.00;;;1.20;;
9834;SDS011;4956;50.996;13.716;2022-09-09T21:52:07;1.40;;;1.00;;
9834;SDS011;4956;50.996;13.716;2022-09-09T21:55:31;0.97;;;0.90;;
9834;SDS011;4956;50.996;13.716;2022-09-09T21:58:57;2.55;;;1.20;;
9834;SDS011;4956;50.996;13.716;2022-09-09T22:02:20;2.05;;;1.20;;